sensor_id;sensor_type;location;lat;lon;timestamp;P1;durP1;ratioP1;P2;durP2;ratioP2
29414;SDS011;20303;48.302;11.914;2023-04-24T00:08:37;1.20;;;1.10;;
29414;SDS011;20303;48.302;11.914;2023-04-24T00:18:38;1.55;;;1.20;;
29414;SDS011;20303;48.302;11.914;2023-04-24T00:28:41;1.20;;;1.10;;
29414;SDS011;20303;48.302;11.914;2023-04-24T00:38:42;1.10;;;1.00;;
29414;SDS011;20303;48.302;11.914;2023-04-24T00:48:43;1.17;;;1.08;;
29414;SDS011;20303;48.302;11.914;2023-04-24T00:58:44;1.10;;;1.00;;
29414;SDS011;20303;48.302;11.914;2023-04-24T01:08:45;0.98;;;0.98;;
29414;SDS011;20303;48.302;11.914;2023-04-24T01:18:47;0.90;;;0.90;;
29414;SDS011;20303;48.302;11.914;2023-04-24T01:28:48;0.90;;;0.90;;
29414;SDS011;20303;48.302;11.914;2023-04-24T01:38:50;1.00;;;1.00;;
29414;SDS011;20303;48.302;11.914;2023-04-24T01:48:51;1.10;;;1.00;;
29414;SDS011;20303;48.302;11.914;2023-04-24T01:58:52;1.00;;;0.90;;
29414;SDS011;20303;48.302;11.914;2023-04-24T02:08:54;1.00;;;0.90;;
29414;SDS011;20303;48.302;11.914;2023-04-24T02:18:55;0.98;;;0.90;;
29414;SDS011;20303;48.302;11.914;2023-04-24T02:28:56;0.80;;;0.80;;
29414;SDS011;20303;48.302;11.914;2023-04-24T02:38:58;0.80;;;0.80;;
29414;SDS011;20303;48.302;11.914;2023-04-24T02:48:59;1.00;;;0.90;;
29414;SDS011;20303;48.302;11.914;2023-04-24T02:59:00;1.00;;;0.90;;
29414;SDS011;20303;48.302;11.914;2023-04-24T03:09:01;0.98;;;0.90;;
29414;SDS011;20303;48.302;11.914;2023-04-24T03:19:03;1.00;;;0.90;;
29414;SDS011;20303;48.302;11.914;2023-04-24T03:29:04;0.80;;;0.80;;
29414;SDS011;20303;48.302;11.914;2023-04-24T03:39:05;0.90;;;0.80;;
29414;SDS011;20303;48.302;11.914;2023-04-24T03:49:07;0.90;;;0.80;;
29414;SDS011;20303;48.302;11.914;2023-04-24T03:59:08;0.80;;;0.80;;
29414;SDS011;20303;48.302;11.914;2023-04-24T04:09:09;0.88;;;0.88;;
29414;SDS011;20303;48.302;11.914;2023-04-24T04:19:10;0.80;;;0.80;;
29414;SDS011;20303;48.302;11.914;2023-04-24T04:29:11;0.80;;;0.80;;
29414;SDS011;20303;48.302;11.914;2023-04-24T04:39:12;0.80;;;0.80;;
29414;SDS011;20303;48.302;11.914;2023-04-24T04:49:15;1.40;;;0.80;;
29414;SDS011;20303;48.302;11.914;2023-04-24T04:59:16;0.90;;;0.70;;
29414;SDS011;20303;48.302;11.914;2023-04-24T05:09:17;0.80;;;0.80;;
29414;SDS011;20303;48.302;11.914;2023-04-24T05:19:18;0.70;;;0.70;;
29414;SDS011;20303;48.302;11.914;2023-04-24T05:29:19;0.70;;;0.70;;
29414;SDS011;20303;48.302;11.914;2023-04-24T05:39:21;0.70;;;0.70;;
29414;SDS011;20303;48.302;11.914;2023-04-24T05:49:22;0.70;;;0.70;;
29414;SDS011;20303;48.302;11.914;2023-04-24T05:59:23;0.70;;;0.70;;
29414;SDS011;20303;48.302;11.914;2023-04-24T06:09:25;0.60;;;0.60;;
29414;SDS011;20303;48.302;11.914;2023-04-24T06:19:26;0.77;;;0.70;;
29414;SDS011;20303;48.302;11.914;2023-04-24T06:29:27;0.70;;;0.65;;
29414;SDS011;20303;48.302;11.914;2023-04-24T06:39:28;0.60;;;0.60;;
29414;SDS011;20303;48.302;11.914;2023-04-24T06:49:29;0.50;;;0.50;;
29414;SDS011;20303;48.302;11.914;2023-04-24T06:59:30;0.80;;;0.65;;
29414;SDS011;20303;48.302;11.914;2023-04-24T07:09:31;0.73;;;0.60;;
29414;SDS011;20303;48.302;11.914;2023-04-24T07:19:33;0.50;;;0.50;;
29414;SDS011;20303;48.302;11.914;2023-04-24T07:29:35;0.80;;;0.60;;
29414;SDS011;20303;48.302;11.914;2023-04-24T07:39:36;0.60;;;0.60;;
29414;SDS011;20303;48.302;11.914;2023-04-24T07:49:37;0.70;;;0.60;;
29414;SDS011;20303;48.302;11.914;2023-04-24T07:59:38;0.60;;;0.60;;
29414;SDS011;20303;48.302;11.914;2023-04-24T08:09:39;0.63;;;0.63;;
29414;SDS011;20303;48.302;11.914;2023-04-24T08:19:40;0.50;;;0.50;;
29414;SDS011;20303;48.302;11.914;2023-04-24T08:29:48;0.50;;;0.50;;
29414;SDS011;20303;48.302;11.914;2023-04-24T08:39:50;0.50;;;0.50;;
29414;SDS011;20303;48.302;11.914;2023-04-24T08:49:51;0.50;;;0.50;;
29414;SDS011;20303;48.302;11.914;2023-04-24T08:59:53;0.60;;;0.60;;
29414;SDS011;20303;48.302;11.914;2023-04-24T09:09:54;0.60;;;0.60;;
29414;SDS011;20303;48.302;11.914;2023-04-24T09:19:55;1.02;;;0.50;;
29414;SDS011;20303;48.302;11.914;2023-04-24T09:29:56;0.40;;;0.40;;
29414;SDS011;20303;48.302;11.914;2023-04-24T09:40:10;0.60;;;0.50;;
29414;SDS011;20303;48.302;11.914;2023-04-24T09:50:14;0.50;;;0.50;;
29414;SDS011;20303;48.302;11.914;2023-04-24T10:00:20;0.50;;;0.50;;
29414;SDS011;20303;48.302;11.914;2023-04-24T10:10:23;0.50;;;0.50;;
29414;SDS011;20303;48.302;11.914;2023-04-24T10:20:28;0.73;;;0.50;;
29414;SDS011;20303;48.302;11.914;2023-04-24T10:30:31;0.50;;;0.50;;
29414;SDS011;20303;48.302;11.914;2023-04-24T10:40:35;0.50;;;0.50;;
29414;SDS011;20303;48.302;11.914;2023-04-24T10:50:46;0.50;;;0.50;;
29414;SDS011;20303;48.302;11.914;2023-04-24T11:00:58;0.50;;;0.50;;
29414;SDS011;20303;48.302;11.914;2023-04-24T11:11:01;0.65;;;0.63;;
29414;SDS011;20303;48.302;11.914;2023-04-24T11:21:09;0.50;;;0.50;;
29414;SDS011;20303;48.302;11.914;2023-04-24T11:31:33;0.50;;;0.50;;
29414;SDS011;20303;48.302;11.914;2023-04-24T11:41:37;0.60;;;0.40;;
29414;SDS011;20303;48.302;11.914;2023-04-24T11:51:38;0.50;;;0.50;;
29414;SDS011;20303;48.302;11.914;2023-04-24T12:01:42;0.55;;;0.50;;
29414;SDS011;20303;48.302;11.914;2023-04-24T12:11:55;0.50;;;0.50;;
29414;SDS011;20303;48.302;11.914;2023-04-24T12:22:03;0.52;;;0.50;;
29414;SDS011;20303;48.302;11.914;2023-04-24T12:32:15;0.45;;;0.45;;
29414;SDS011;20303;48.302;11.914;2023-04-24T12:42:16;0.50;;;0.50;;
29414;SDS011;20303;48.302;11.914;2023-04-24T12:52:27;2.53;;;0.43;;
29414;SDS011;20303;48.302;11.914;2023-04-24T13:02:29;0.50;;;0.50;;
29414;SDS011;20303;48.302;11.914;2023-04-24T13:12:31;0.50;;;0.50;;
29414;SDS011;20303;48.302;11.914;2023-04-24T13:22:32;0.45;;;0.45;;
29414;SDS011;20303;48.302;11.914;2023-04-24T13:32:33;0.50;;;0.50;;
29414;SDS011;20303;48.302;11.914;2023-04-24T13:42:35;0.68;;;0.60;;
29414;SDS011;20303;48.302;11.914;2023-04-24T13:52:36;1.55;;;0.50;;
29414;SDS011;20303;48.302;11.914;2023-04-24T14:02:37;0.75;;;0.65;;
29414;SDS011;20303;48.302;11.914;2023-04-24T14:12:38;0.60;;;0.60;;
29414;SDS011;20303;48.302;11.914;2023-04-24T14:22:39;0.65;;;0.60;;
29414;SDS011;20303;48.302;11.914;2023-04-24T14:32:40;0.85;;;0.60;;
29414;SDS011;20303;48.302;11.914;2023-04-24T14:42:41;0.85;;;0.65;;
29414;SDS011;20303;48.302;11.914;2023-04-24T14:52:42;0.90;;;0.70;;
29414;SDS011;20303;48.302;11.914;2023-04-24T15:02:43;1.60;;;0.82;;
29414;SDS011;20303;48.302;11.914;2023-04-24T15:12:44;1.10;;;0.80;;
29414;SDS011;20303;48.302;11.914;2023-04-24T15:22:46;1.92;;;0.80;;
29414;SDS011;20303;48.302;11.914;2023-04-24T15:32:47;2.10;;;0.70;;
29414;SDS011;20303;48.302;11.914;2023-04-24T15:42:48;2.50;;;0.90;;
29414;SDS011;20303;48.302;11.914;2023-04-24T15:52:50;1.67;;;0.90;;
29414;SDS011;20303;48.302;11.914;2023-04-24T16:02:51;2.67;;;1.08;;
29414;SDS011;20303;48.302;11.914;2023-04-24T16:12:52;1.45;;;1.00;;
29414;SDS011;20303;48.302;11.914;2023-04-24T16:22:53;2.00;;;0.90;;
29414;SDS011;20303;48.302;11.914;2023-04-24T16:32:54;1.98;;;0.90;;
29414;SDS011;20303;48.302;11.914;2023-04-24T16:42:55;1.60;;;0.80;;
29414;SDS011;20303;48.302;11.914;2023-04-24T16:52:56;1.40;;;0.95;;
29414;SDS011;20303;48.302;11.914;2023-04-24T17:02:57;1.15;;;0.80;;
29414;SDS011;20303;48.302;11.914;2023-04-24T17:12:58;1.45;;;0.90;;
29414;SDS011;20303;48.302;11.914;2023-04-24T17:23:00;2.72;;;0.90;;
29414;SDS011;20303;48.302;11.914;2023-04-24T17:33:00;0.80;;;0.75;;
29414;SDS011;20303;48.302;11.914;2023-04-24T17:43:01;0.93;;;0.80;;
29414;SDS011;20303;48.302;11.914;2023-04-24T17:53:02;1.27;;;0.90;;
29414;SDS011;20303;48.302;11.914;2023-04-24T18:03:04;1.38;;;0.80;;
29414;SDS011;20303;48.302;11.914;2023-04-24T18:13:06;4.18;;;0.80;;
29414;SDS011;20303;48.302;11.914;2023-04-24T18:23:08;2.08;;;0.93;;
29414;SDS011;20303;48.302;11.914;2023-04-24T18:33:09;1.80;;;0.85;;
29414;SDS011;20303;48.302;11.914;2023-04-24T18:43:10;1.88;;;0.90;;
29414;SDS011;20303;48.302;11.914;2023-04-24T18:53:11;1.25;;;0.90;;
29414;SDS011;20303;48.302;11.914;2023-04-24T19:03:15;2.30;;;0.90;;
29414;SDS011;20303;48.302;11.914;2023-04-24T19:13:16;3.65;;;0.90;;
29414;SDS011;20303;48.302;11.914;2023-04-24T19:23:19;1.10;;;0.80;;
29414;SDS011;20303;48.302;11.914;2023-04-24T19:33:20;1.20;;;0.90;;
29414;SDS011;20303;48.302;11.914;2023-04-24T19:43:21;1.45;;;0.80;;
29414;SDS011;20303;48.302;11.914;2023-04-24T19:53:22;1.20;;;0.90;;
29414;SDS011;20303;48.302;11.914;2023-04-24T20:03:23;1.20;;;0.70;;
29414;SDS011;20303;48.302;11.914;2023-04-24T20:13:24;1.67;;;0.77;;
29414;SDS011;20303;48.302;11.914;2023-04-24T20:23:27;1.17;;;0.90;;
29414;SDS011;20303;48.302;11.914;2023-04-24T20:33:28;1.30;;;0.80;;
29414;SDS011;20303;48.302;11.914;2023-04-24T20:43:29;3.58;;;1.00;;
29414;SDS011;20303;48.302;11.914;2023-04-24T20:53:30;1.30;;;0.90;;
29414;SDS011;20303;48.302;11.914;2023-04-24T21:03:31;1.15;;;0.82;;
29414;SDS011;20303;48.302;11.914;2023-04-24T21:13:32;1.52;;;0.80;;
29414;SDS011;20303;48.302;11.914;2023-04-24T21:23:34;3.15;;;0.95;;
29414;SDS011;20303;48.302;11.914;2023-04-24T21:33:35;1.02;;;0.80;;
29414;SDS011;20303;48.302;11.914;2023-04-24T21:43:36;2.72;;;0.90;;
29414;SDS011;20303;48.302;11.914;2023-04-24T21:53:37;1.40;;;0.98;;
29414;SDS011;20303;48.302;11.914;2023-04-24T22:03:38;1.60;;;1.00;;
29414;SDS011;20303;48.302;11.914;2023-04-24T22:13:39;1.83;;;1.35;;
29414;SDS011;20303;48.302;11.914;2023-04-24T22:23:40;2.75;;;0.93;;
29414;SDS011;20303;48.302;11.914;2023-04-24T22:33:43;2.28;;;1.00;;
29414;SDS011;20303;48.302;11.914;2023-04-24T22:43:45;2.72;;;1.20;;
29414;SDS011;20303;48.302;11.914;2023-04-24T22:53:46;1.52;;;1.00;;
29414;SDS011;20303;48.302;11.914;2023-04-24T23:03:48;1.60;;;1.10;;
29414;SDS011;20303;48.302;11.914;2023-04-24T23:13:50;2.90;;;1.15;;
29414;SDS011;20303;48.302;11.914;2023-04-24T23:23:51;2.28;;;1.10;;
29414;SDS011;20303;48.302;11.914;2023-04-24T23:33:52;3.17;;;1.20;;
29414;SDS011;20303;48.302;11.914;2023-04-24T23:43:53;2.22;;;1.17;;
29414;SDS011;20303;48.302;11.914;2023-04-24T23:53:54;2.22;;;1.10;;
